createdAt,value
2022-08-26T00:01:57.908Z,4.0
2022-08-26T00:13:57.872Z,4.0
2022-08-26T00:25:57.852Z,4.5
2022-08-26T00:37:57.861Z,4.5
2022-08-26T00:49:57.859Z,4.5
2022-08-26T01:01:57.935Z,4.5
2022-08-26T01:13:57.907Z,4.5
2022-08-26T01:25:57.865Z,4.4
2022-08-26T01:37:57.860Z,4.4
2022-08-26T01:49:57.874Z,4.6
2022-08-26T02:01:57.964Z,4.6
2022-08-26T02:13:57.843Z,4.6
2022-08-26T02:25:57.880Z,4.9
2022-08-26T02:37:57.936Z,4.9
2022-08-26T02:49:57.889Z,5.6
2022-08-26T03:01:57.904Z,5.6
2022-08-26T03:13:57.859Z,5.6
2022-08-26T03:25:57.842Z,5.6
2022-08-26T03:37:57.817Z,5.6
2022-08-26T03:49:57.880Z,6.3
2022-08-26T04:01:57.896Z,6.3
2022-08-26T04:13:57.861Z,6.3
2022-08-26T04:25:57.841Z,6.2
2022-08-26T04:37:58.158Z,6.2
2022-08-26T04:49:57.872Z,7.4
2022-08-26T05:01:57.935Z,7.4
2022-08-26T05:14:01.648Z,7.4
2022-08-26T05:26:00.341Z,9.3
2022-08-26T05:37:57.844Z,9.3
2022-08-26T05:49:57.870Z,10.2
2022-08-26T06:01:57.875Z,10.2
2022-08-26T06:14:02.571Z,10.2
2022-08-26T06:25:57.856Z,13.8
2022-08-26T06:37:57.870Z,13.8
2022-08-26T06:49:57.873Z,17.1
2022-08-26T07:01:59.035Z,17.1
2022-08-26T07:13:57.858Z,17.1
2022-08-26T07:25:57.859Z,24.2
2022-08-26T07:37:57.863Z,24.2
2022-08-26T07:49:57.905Z,68.6
2022-08-26T08:01:57.928Z,68.6
2022-08-26T08:13:57.855Z,68.6
2022-08-26T08:25:57.836Z,63.4
2022-08-26T08:37:57.865Z,63.4
2022-08-26T08:49:57.865Z,54.6
2022-08-26T09:01:57.893Z,54.6
2022-08-26T09:13:57.838Z,54.6
2022-08-26T09:25:57.857Z,47.8
2022-08-26T09:37:57.874Z,47.8
2022-08-26T09:49:58.178Z,42.2
2022-08-26T10:01:57.951Z,42.2
2022-08-26T10:13:57.877Z,42.2
2022-08-26T10:25:57.979Z,39.7
2022-08-26T10:37:57.881Z,39.7
2022-08-26T10:50:03.036Z,50.2
2022-08-26T11:01:58.658Z,50.2
2022-08-26T11:13:58.237Z,50.2
2022-08-26T11:25:58.455Z,47.5
2022-08-26T11:37:57.958Z,47.5
2022-08-26T11:49:58.088Z,44.3
2022-08-26T12:01:57.921Z,44.3
2022-08-26T12:13:58.011Z,44.3
2022-08-26T12:25:58.351Z,46.9
2022-08-26T12:37:58.980Z,46.9
2022-08-26T12:49:58.829Z,41.7
2022-08-26T13:01:58.424Z,41.7
2022-08-26T13:13:58.201Z,41.7
2022-08-26T13:25:58.041Z,37.8
2022-08-26T13:37:57.927Z,37.8
2022-08-26T13:49:57.840Z,28.3
2022-08-26T14:01:57.867Z,28.3
2022-08-26T14:13:57.819Z,28.3
2022-08-26T14:25:57.835Z,18.0
2022-08-26T14:37:57.885Z,18.0
2022-08-26T14:49:57.847Z,18.9
2022-08-26T15:01:57.949Z,18.9
2022-08-26T15:13:57.864Z,18.9
2022-08-26T15:25:57.875Z,13.6
2022-08-26T15:37:57.857Z,13.6
2022-08-26T15:49:57.888Z,10.2
2022-08-26T16:01:57.904Z,10.2
2022-08-26T16:13:57.882Z,10.2
2022-08-26T16:25:57.865Z,8.8
2022-08-26T16:37:57.842Z,8.8
2022-08-26T16:49:57.884Z,13.5
2022-08-26T17:01:57.981Z,13.5
2022-08-26T17:13:58.218Z,13.5
2022-08-26T17:25:57.875Z,13.6
2022-08-26T17:37:57.863Z,13.6
2022-08-26T17:49:57.883Z,14.8
2022-08-26T18:01:57.907Z,14.8
2022-08-26T18:13:57.861Z,14.8
2022-08-26T18:25:57.853Z,15.7
2022-08-26T18:37:57.900Z,15.7
2022-08-26T18:49:57.845Z,11.8
2022-08-26T19:01:58.057Z,11.8
2022-08-26T19:13:57.860Z,11.8
2022-08-26T19:25:57.849Z,12.7
2022-08-26T19:37:57.828Z,12.7
2022-08-26T19:49:57.862Z,11.9
2022-08-26T20:02:01.462Z,11.9
2022-08-26T20:13:57.851Z,11.9
2022-08-26T20:25:57.856Z,9.9
2022-08-26T20:37:57.866Z,9.9
2022-08-26T20:49:57.913Z,8.1
2022-08-26T21:01:57.862Z,8.1
2022-08-26T21:14:07.135Z,8.1
2022-08-26T21:25:57.861Z,7.8
2022-08-26T21:37:57.859Z,7.8
2022-08-26T21:49:57.867Z,7.3
2022-08-26T22:01:57.936Z,7.3
2022-08-26T22:13:57.859Z,7.3
2022-08-26T22:25:57.867Z,7.3
2022-08-26T22:37:57.870Z,7.3
2022-08-26T22:49:57.880Z,7.4
2022-08-26T23:01:57.867Z,7.4
2022-08-26T23:13:57.846Z,7.4
2022-08-26T23:25:57.860Z,8.0
2022-08-26T23:37:59.050Z,8.0
2022-08-26T23:49:57.864Z,8.5
